createdAt,value
2023-03-05T00:30:44.709Z,0
2023-03-05T00:31:25.202Z,0
2023-03-05T00:32:05.769Z,0
2023-03-05T00:37:29.570Z,0
2023-03-05T00:38:10.081Z,0
2023-03-05T00:38:50.560Z,0
2023-03-05T00:39:31.046Z,0
2023-03-05T00:40:11.571Z,0
2023-03-05T00:40:52.007Z,0
2023-03-05T00:41:32.515Z,0
2023-03-05T00:42:12.968Z,0
2023-03-05T00:42:53.524Z,0
2023-03-05T00:43:33.995Z,0
2023-03-05T00:50:59.395Z,0
2023-03-05T00:51:39.893Z,0
2023-03-05T00:52:20.370Z,0
2023-03-05T00:53:00.858Z,0
2023-03-05T00:53:41.341Z,0
2023-03-05T00:55:02.274Z,0
2023-03-05T00:55:42.792Z,0
2023-03-05T00:56:23.278Z,0
2023-03-05T00:57:03.753Z,0
2023-03-05T00:57:44.248Z,0
2023-03-05T01:05:09.677Z,0
2023-03-05T01:05:50.193Z,0
2023-03-05T01:06:30.716Z,0
2023-03-05T01:07:11.127Z,0
2023-03-05T01:07:51.624Z,0
2023-03-05T01:08:32.100Z,0
2023-03-05T01:09:12.557Z,0
2023-03-05T01:09:53.035Z,0
2023-03-05T01:10:33.533Z,0
2023-03-05T01:11:13.988Z,0
2023-03-05T01:18:39.292Z,0
2023-03-05T01:19:19.802Z,0
2023-03-05T01:20:00.259Z,0
2023-03-05T01:20:41.570Z,0
2023-03-05T01:21:22.109Z,0
2023-03-05T01:22:02.543Z,0
2023-03-05T01:22:43.012Z,0
2023-03-05T01:23:23.502Z,0
2023-03-05T01:24:03.970Z,0
2023-03-05T01:31:29.527Z,0
2023-03-05T01:32:10.043Z,0
2023-03-05T01:32:50.501Z,0
2023-03-05T01:33:30.984Z,0
2023-03-05T01:34:11.477Z,0
2023-03-05T01:34:51.933Z,0
2023-03-05T01:35:32.469Z,0
2023-03-05T01:36:12.912Z,0
2023-03-05T01:36:53.402Z,0
2023-03-05T01:37:33.875Z,0
2023-03-05T01:44:45.376Z,0
2023-03-05T01:45:25.809Z,0
2023-03-05T01:46:06.279Z,0
2023-03-05T01:51:30.298Z,0
2023-03-05T01:52:10.818Z,0
2023-03-05T01:52:51.334Z,0
2023-03-05T01:53:31.732Z,0
2023-03-05T01:54:12.214Z,0
2023-03-05T01:54:52.731Z,0
2023-03-05T01:55:33.216Z,0
2023-03-05T01:56:13.718Z,0
2023-03-05T01:56:54.231Z,0
2023-03-05T01:57:34.685Z,0
2023-03-05T02:05:00.132Z,0
2023-03-05T02:05:40.603Z,0
2023-03-05T02:06:21.097Z,0
2023-03-05T02:07:01.589Z,0
2023-03-05T02:07:42.112Z,0
2023-03-05T02:08:22.579Z,0
2023-03-05T02:09:03.069Z,0
2023-03-05T02:10:24.000Z,0
2023-03-05T02:11:04.500Z,0
2023-03-05T02:18:30.048Z,0
2023-03-05T02:19:10.532Z,0
2023-03-05T02:19:51.015Z,0
2023-03-05T02:20:31.586Z,0
2023-03-05T02:21:12.081Z,0
2023-03-05T02:21:52.555Z,0
2023-03-05T02:22:33.048Z,0
2023-03-05T02:23:13.536Z,0
2023-03-05T02:23:54.008Z,0
2023-03-05T02:24:34.543Z,0
2023-03-05T02:25:14.982Z,0
2023-03-05T02:32:40.424Z,0
2023-03-05T02:33:20.926Z,0
2023-03-05T02:34:01.380Z,0
2023-03-05T02:34:41.922Z,0
2023-03-05T02:35:22.493Z,0
2023-03-05T02:36:02.913Z,0
2023-03-05T02:36:43.437Z,0
2023-03-05T02:37:23.898Z,0
2023-03-05T02:38:04.421Z,0
2023-03-05T02:38:44.894Z,0
2023-03-05T02:46:10.339Z,0
2023-03-05T02:46:50.819Z,0
2023-03-05T02:48:11.740Z,0
2023-03-05T02:48:52.212Z,0
2023-03-05T02:49:32.708Z,0
2023-03-05T02:50:13.242Z,0
2023-03-05T02:50:53.737Z,0
2023-03-05T02:51:34.213Z,0
2023-03-05T02:52:14.698Z,0
2023-03-05T02:59:40.105Z,0
2023-03-05T03:00:20.526Z,0
2023-03-05T03:01:01.131Z,0
2023-03-05T03:01:41.668Z,0
2023-03-05T03:02:22.067Z,0
2023-03-05T03:03:02.704Z,0
2023-03-05T03:03:43.105Z,0
2023-03-05T03:04:23.552Z,0
2023-03-05T03:05:04.055Z,0
2023-03-05T03:05:44.583Z,0
2023-03-05T03:12:30.008Z,0
2023-03-05T03:13:10.494Z,0
2023-03-05T03:13:50.984Z,0
2023-03-05T03:14:31.470Z,0
2023-03-05T03:15:52.440Z,0
2023-03-05T03:16:32.960Z,0
2023-03-05T03:17:13.430Z,0
2023-03-05T03:17:53.927Z,0
2023-03-05T03:20:32.093Z,0
2023-03-05T03:21:12.588Z,0
2023-03-05T03:21:53.018Z,0
2023-03-05T03:27:17.027Z,0
2023-03-05T03:27:57.484Z,0
2023-03-05T03:28:37.968Z,0
2023-03-05T03:29:18.458Z,0
2023-03-05T03:29:58.925Z,0
2023-03-05T03:30:39.460Z,0
2023-03-05T03:31:19.925Z,0
2023-03-05T03:32:00.394Z,0
2023-03-05T03:32:40.817Z,0
2023-03-05T03:33:21.287Z,0
2023-03-05T03:38:57.373Z,0
2023-03-05T03:39:37.859Z,0
2023-03-05T03:40:18.338Z,0
2023-03-05T03:45:42.252Z,0
2023-03-05T03:46:22.809Z,0
2023-03-05T03:47:03.267Z,0
2023-03-05T03:47:43.788Z,0
2023-03-05T03:48:24.258Z,0
2023-03-05T03:49:04.777Z,0
2023-03-05T03:49:45.212Z,0
2023-03-05T03:51:06.210Z,0
2023-03-05T03:51:46.714Z,0
2023-03-05T03:58:32.320Z,0
2023-03-05T03:59:12.812Z,0
2023-03-05T04:02:51.907Z,0
2023-03-05T04:03:32.373Z,0
2023-03-05T04:04:12.982Z,0
2023-03-05T04:08:56.947Z,0
2023-03-05T04:09:37.418Z,0
2023-03-05T04:10:58.432Z,0
2023-03-05T04:11:38.925Z,0
2023-03-05T04:12:19.411Z,0
2023-03-05T04:12:59.915Z,0
2023-03-05T04:13:40.371Z,0
2023-03-05T04:14:20.872Z,0
2023-03-05T04:15:01.382Z,0
2023-03-05T04:22:26.896Z,0
2023-03-05T04:23:07.369Z,0
2023-03-05T04:23:47.853Z,0
2023-03-05T04:24:28.317Z,0
2023-03-05T04:25:08.860Z,0
2023-03-05T04:25:49.317Z,0
2023-03-05T04:26:29.797Z,0
2023-03-05T04:27:10.277Z,0
2023-03-05T04:27:50.741Z,0
2023-03-05T04:28:31.209Z,0
2023-03-05T04:35:16.625Z,0
2023-03-05T04:35:57.202Z,0
2023-03-05T04:36:37.637Z,0
2023-03-05T04:37:18.094Z,0
2023-03-05T04:37:58.629Z,0
2023-03-05T04:38:39.104Z,0
2023-03-05T04:39:19.603Z,0
2023-03-05T04:40:00.131Z,0
2023-03-05T04:40:41.240Z,0
2023-03-05T04:41:21.028Z,0
2023-03-05T04:42:01.525Z,0
2023-03-05T04:48:46.502Z,0
2023-03-05T04:49:26.949Z,0
2023-03-05T04:50:07.507Z,0
2023-03-05T04:50:47.981Z,0
2023-03-05T04:51:28.448Z,0
2023-03-05T04:52:08.918Z,0
2023-03-05T04:52:49.447Z,0
2023-03-05T04:53:29.943Z,0
2023-03-05T04:54:10.390Z,0
2023-03-05T04:54:50.879Z,0
2023-03-05T04:55:31.358Z,0
2023-03-05T05:03:48.503Z,0
2023-03-05T05:04:29.003Z,0
2023-03-05T05:05:09.530Z,0
2023-03-05T05:10:33.490Z,0
2023-03-05T05:11:14.054Z,0
2023-03-05T05:11:54.524Z,0
2023-03-05T05:12:35.011Z,0
2023-03-05T05:13:15.553Z,0
2023-03-05T05:13:56.043Z,0
2023-03-05T05:14:36.522Z,0
2023-03-05T05:15:17.008Z,0
2023-03-05T05:15:57.492Z,0
2023-03-05T05:16:38.002Z,0
2023-03-05T05:23:09.343Z,0
2023-03-05T05:23:50.308Z,0
2023-03-05T05:24:31.297Z,0
2023-03-05T05:26:34.256Z,0
2023-03-05T05:27:15.217Z,0
2023-03-05T05:30:28.901Z,0
2023-03-05T05:31:09.382Z,0
2023-03-05T05:31:49.888Z,0
2023-03-05T05:37:13.770Z,0
2023-03-05T05:37:54.272Z,0
2023-03-05T05:38:34.754Z,0
2023-03-05T05:39:15.225Z,0
2023-03-05T05:39:55.759Z,0
2023-03-05T05:43:14.409Z,0
2023-03-05T05:43:54.871Z,0
2023-03-05T05:44:35.346Z,0
2023-03-05T05:50:00.070Z,0
2023-03-05T05:50:40.561Z,0
2023-03-05T05:51:21.032Z,0
2023-03-05T05:52:01.549Z,0
2023-03-05T05:52:42.009Z,0
2023-03-05T06:32:26.127Z,0
2023-03-05T06:33:06.514Z,0
2023-03-05T06:33:47.006Z,0
2023-03-05T06:39:10.830Z,0
2023-03-05T06:39:51.312Z,0
2023-03-05T06:40:31.789Z,0
2023-03-05T06:41:12.278Z,0
2023-03-05T06:41:52.789Z,0
2023-03-05T06:42:33.287Z,0
2023-03-05T06:43:13.780Z,0
2023-03-05T06:43:54.233Z,0
2023-03-05T06:44:34.727Z,0
2023-03-05T06:45:15.231Z,0
2023-03-05T06:52:40.752Z,0
2023-03-05T06:53:21.271Z,0
2023-03-05T06:54:01.787Z,0
2023-03-05T06:54:42.225Z,0
2023-03-05T06:55:22.705Z,0
2023-03-05T06:56:03.294Z,0
2023-03-05T06:56:43.695Z,0
2023-03-05T06:57:24.904Z,0
2023-03-05T06:58:04.752Z,0
2023-03-05T06:58:45.267Z,0
2023-03-05T06:59:25.772Z,0
2023-03-05T07:06:10.728Z,0
2023-03-05T07:06:51.202Z,0
2023-03-05T07:07:31.709Z,0
2023-03-05T07:08:12.224Z,0
2023-03-05T07:08:53.294Z,0
2023-03-05T07:09:33.786Z,0
2023-03-05T07:10:14.297Z,0
2023-03-05T07:11:35.309Z,0
2023-03-05T07:12:15.771Z,0
2023-03-05T07:18:21.010Z,5
2023-03-05T07:19:01.527Z,5
2023-03-05T07:19:42.003Z,5
2023-03-05T07:20:22.504Z,5
2023-03-05T07:21:03.026Z,5
2023-03-05T07:21:43.504Z,5
2023-03-05T07:22:23.960Z,5
2023-03-05T07:23:04.450Z,5
2023-03-05T07:23:44.971Z,5
2023-03-05T07:24:25.406Z,5
2023-03-05T07:31:50.906Z,5
2023-03-05T07:32:31.410Z,5
2023-03-05T07:33:11.841Z,5
2023-03-05T07:33:52.320Z,5
2023-03-05T07:34:32.850Z,5
2023-03-05T07:35:13.310Z,5
2023-03-05T07:35:53.838Z,5
2023-03-05T07:36:34.282Z,5
2023-03-05T07:37:14.816Z,5
2023-03-05T07:37:55.259Z,5
2023-03-05T07:45:20.733Z,5
2023-03-05T07:46:01.187Z,5
2023-03-05T07:46:41.903Z,5
2023-03-05T07:47:22.300Z,5
2023-03-05T07:48:02.829Z,5
2023-03-05T07:48:43.305Z,5
2023-03-05T07:49:23.871Z,5
2023-03-05T07:50:04.338Z,5
2023-03-05T07:50:44.801Z,5
2023-03-05T07:51:25.301Z,5
2023-03-05T07:54:19.014Z,5
2023-03-05T07:54:59.482Z,5
2023-03-05T07:55:39.993Z,5
2023-03-05T08:01:03.991Z,5
2023-03-05T08:01:44.522Z,5
2023-03-05T08:02:25.013Z,5
2023-03-05T08:03:05.455Z,5
2023-03-05T08:03:45.968Z,5
2023-03-05T08:04:26.450Z,5
2023-03-05T08:05:06.993Z,5
2023-03-05T08:05:47.506Z,5
2023-03-05T08:06:28.061Z,5
2023-03-05T08:07:08.486Z,5
2023-03-05T08:14:34.003Z,10
2023-03-05T08:15:14.476Z,10
2023-03-05T08:15:54.996Z,10
2023-03-05T08:16:35.496Z,10
2023-03-05T08:17:15.953Z,10
2023-03-05T08:17:56.482Z,10
2023-03-05T08:18:37.085Z,10
2023-03-05T08:19:17.528Z,10
2023-03-05T08:19:58.081Z,10
2023-03-05T08:20:38.595Z,10
2023-03-05T08:28:04.138Z,10
2023-03-05T08:28:44.667Z,10
2023-03-05T08:29:25.143Z,10
2023-03-05T08:30:05.646Z,10
2023-03-05T08:30:46.158Z,10
2023-03-05T08:31:26.754Z,10
2023-03-05T08:32:07.198Z,10
2023-03-05T08:32:47.666Z,10
2023-03-05T08:33:30.947Z,10
2023-03-05T08:40:13.704Z,10
2023-03-05T08:40:54.235Z,10
2023-03-05T08:41:34.729Z,10
2023-03-05T08:42:15.310Z,10
2023-03-05T08:42:55.801Z,15
2023-03-05T08:43:36.304Z,15
2023-03-05T08:44:16.847Z,15
2023-03-05T08:44:57.403Z,15
2023-03-05T08:45:37.905Z,15
2023-03-05T08:46:18.403Z,15
2023-03-05T08:53:44.113Z,15
2023-03-05T08:54:24.668Z,15
2023-03-05T08:55:05.173Z,15
2023-03-05T08:55:45.650Z,15
2023-03-05T08:56:26.184Z,15
2023-03-05T08:57:06.657Z,15
2023-03-05T08:57:47.161Z,15
2023-03-05T08:58:27.654Z,15
2023-03-05T08:59:08.154Z,15
2023-03-05T08:59:48.670Z,15
2023-03-05T09:06:33.892Z,20
2023-03-05T09:07:14.472Z,25
2023-03-05T09:07:54.882Z,25
2023-03-05T09:08:35.416Z,25
2023-03-05T09:09:15.870Z,30
2023-03-05T09:09:56.399Z,30
2023-03-05T09:10:36.909Z,30
2023-03-05T09:11:17.494Z,35
2023-03-05T09:11:57.973Z,35
2023-03-05T09:12:38.512Z,40
2023-03-05T09:19:23.923Z,40
2023-03-05T09:20:04.389Z,40
2023-03-05T09:20:45.838Z,40
2023-03-05T09:21:26.330Z,40
2023-03-05T09:22:06.825Z,40
2023-03-05T09:22:47.387Z,40
2023-03-05T09:23:27.850Z,40
2023-03-05T09:24:08.331Z,40
2023-03-05T09:31:34.231Z,40
2023-03-05T09:32:14.814Z,40
2023-03-05T09:32:55.250Z,45
2023-03-05T09:33:35.724Z,40
2023-03-05T09:34:16.233Z,40
2023-03-05T09:34:57.592Z,40
2023-03-05T09:35:38.096Z,35
2023-03-05T09:38:25.588Z,30
2023-03-05T09:39:04.839Z,30
2023-03-05T09:39:48.868Z,35
2023-03-05T09:45:54.002Z,25
2023-03-05T09:46:34.385Z,25
2023-03-05T09:47:14.991Z,25
2023-03-05T09:47:55.437Z,25
2023-03-05T09:48:36.176Z,30
2023-03-05T09:49:16.740Z,30
2023-03-05T09:49:57.541Z,30
2023-03-05T09:55:24.579Z,30
2023-03-05T10:02:14.530Z,25
2023-03-05T10:02:54.929Z,25
2023-03-05T10:03:35.489Z,20
2023-03-05T10:04:15.976Z,20
2023-03-05T10:04:56.400Z,20
2023-03-05T10:05:36.927Z,20
2023-03-05T10:06:17.440Z,20
2023-03-05T10:06:57.967Z,20
2023-03-05T10:07:38.462Z,20
2023-03-05T10:14:23.872Z,15
2023-03-05T10:15:04.961Z,15
2023-03-05T10:15:45.593Z,15
2023-03-05T10:16:27.348Z,15
2023-03-05T10:17:07.664Z,15
2023-03-05T10:17:48.283Z,15
2023-03-05T10:23:54.298Z,15
2023-03-05T10:24:34.993Z,15
2023-03-05T10:25:15.704Z,15
2023-03-05T10:25:56.137Z,15
2023-03-05T10:26:36.794Z,15
2023-03-05T10:27:17.259Z,15
2023-03-05T10:27:57.757Z,15
2023-03-05T10:28:38.317Z,15
2023-03-05T10:31:24.026Z,10
2023-03-05T10:32:04.239Z,10
2023-03-05T10:32:44.422Z,10
2023-03-05T10:33:25.048Z,10
2023-03-05T10:34:05.616Z,10
2023-03-05T10:34:47.378Z,10
2023-03-05T10:35:27.829Z,10
2023-03-05T10:36:08.340Z,10
2023-03-05T10:40:53.868Z,5
2023-03-05T10:41:34.099Z,5
2023-03-05T10:42:14.473Z,5
2023-03-05T10:42:55.204Z,5
2023-03-05T10:43:35.700Z,5
2023-03-05T10:44:16.225Z,5
2023-03-05T10:44:56.701Z,5
2023-03-05T10:45:37.254Z,5
2023-03-05T10:46:17.802Z,5
2023-03-05T10:46:58.338Z,10
2023-03-05T10:53:44.222Z,15
2023-03-05T10:54:25.006Z,20
2023-03-05T10:55:05.309Z,20
2023-03-05T10:55:46.679Z,20
2023-03-05T10:56:27.183Z,20
2023-03-05T10:57:07.895Z,25
2023-03-05T10:57:48.275Z,25
2023-03-05T11:05:13.998Z,30
2023-03-05T11:05:54.463Z,35
2023-03-05T11:06:34.996Z,35
2023-03-05T11:07:15.471Z,35
2023-03-05T11:07:55.981Z,35
2023-03-05T11:08:36.523Z,40
2023-03-05T11:09:16.964Z,40
2023-03-05T11:09:57.499Z,35
2023-03-05T11:10:38.013Z,35
2023-03-05T11:11:18.501Z,35
2023-03-05T11:18:44.075Z,10
2023-03-05T11:19:24.568Z,10
2023-03-05T11:20:05.124Z,10
2023-03-05T11:20:45.592Z,10
2023-03-05T11:21:26.134Z,15
2023-03-05T11:22:06.616Z,15
2023-03-05T11:22:47.144Z,15
2023-03-05T11:23:27.596Z,15
2023-03-05T11:24:08.113Z,15
2023-03-05T11:24:48.634Z,20
2023-03-05T11:31:33.698Z,20
2023-03-05T11:32:14.284Z,20
2023-03-05T11:32:54.724Z,20
2023-03-05T11:33:35.244Z,20
2023-03-05T11:34:15.711Z,20
2023-03-05T11:34:56.228Z,20
2023-03-05T11:35:36.736Z,25
2023-03-05T11:36:17.225Z,20
2023-03-05T11:36:57.714Z,20
2023-03-05T11:37:38.212Z,15
2023-03-05T11:45:03.695Z,10
2023-03-05T11:45:44.217Z,10
2023-03-05T11:46:24.813Z,10
2023-03-05T11:47:05.267Z,10
2023-03-05T11:47:45.736Z,10
2023-03-05T11:48:26.251Z,10
2023-03-05T11:49:06.794Z,10
2023-03-05T11:49:47.287Z,10
2023-03-05T11:50:27.793Z,15
2023-03-05T11:51:08.307Z,15
2023-03-05T12:32:11.237Z,10
2023-03-05T12:32:51.725Z,10
2023-03-05T12:33:32.163Z,10
2023-03-05T12:38:56.200Z,5
2023-03-05T12:39:36.687Z,5
2023-03-05T12:40:18.021Z,5
2023-03-05T12:40:58.518Z,5
2023-03-05T12:41:39.236Z,5
2023-03-05T12:42:19.469Z,5
2023-03-05T12:42:59.991Z,5
2023-03-05T12:43:40.445Z,5
2023-03-05T12:50:25.968Z,5
2023-03-05T12:51:06.518Z,5
2023-03-05T12:51:47.011Z,5
2023-03-05T12:52:27.545Z,5
2023-03-05T12:53:07.973Z,10
2023-03-05T12:53:48.444Z,10
2023-03-05T12:54:29.002Z,10
2023-03-05T12:55:09.458Z,10
2023-03-05T12:55:49.944Z,10
2023-03-05T12:56:30.477Z,10
2023-03-05T13:03:56.041Z,10
2023-03-05T13:04:36.599Z,10
2023-03-05T13:05:17.191Z,10
2023-03-05T13:05:57.648Z,10
2023-03-05T13:06:38.105Z,10
2023-03-05T13:07:18.583Z,10
2023-03-05T13:07:59.079Z,10
2023-03-05T13:08:39.591Z,10
2023-03-05T13:09:20.062Z,10
2023-03-05T13:10:00.553Z,10
2023-03-05T13:17:26.036Z,5
2023-03-05T13:18:06.591Z,5
2023-03-05T13:18:47.136Z,5
2023-03-05T13:19:27.583Z,5
2023-03-05T13:20:08.056Z,10
2023-03-05T13:20:48.515Z,10
2023-03-05T13:21:29.018Z,5
2023-03-05T13:22:09.540Z,5
2023-03-05T13:22:50.010Z,5
2023-03-05T13:23:30.577Z,10
2023-03-05T13:30:56.055Z,5
2023-03-05T13:31:36.561Z,5
2023-03-05T13:32:17.005Z,5
2023-03-05T13:32:57.473Z,10
2023-03-05T13:33:38.019Z,10
2023-03-05T13:34:18.519Z,10
2023-03-05T13:34:59.486Z,10
2023-03-05T13:35:39.501Z,10
2023-03-05T13:36:19.993Z,10
2023-03-05T13:37:00.445Z,10
2023-03-05T13:44:25.897Z,5
2023-03-05T13:45:06.395Z,5
2023-03-05T13:45:46.968Z,5
2023-03-05T13:46:27.458Z,10
2023-03-05T13:47:07.893Z,10
2023-03-05T13:47:48.363Z,10
2023-03-05T13:48:28.886Z,10
2023-03-05T13:49:09.411Z,10
2023-03-05T13:49:49.939Z,10
2023-03-05T13:50:30.388Z,10
2023-03-05T13:57:56.028Z,10
2023-03-05T13:58:36.516Z,10
2023-03-05T13:59:17.012Z,10
2023-03-05T13:59:57.535Z,10
2023-03-05T14:01:18.584Z,15
2023-03-05T14:01:59.042Z,15
2023-03-05T14:02:39.476Z,15
2023-03-05T14:03:19.941Z,15
2023-03-05T14:04:00.471Z,15
2023-03-05T14:11:25.941Z,15
2023-03-05T14:12:06.482Z,15
2023-03-05T14:12:46.965Z,15
2023-03-05T14:13:27.479Z,15
2023-03-05T14:14:07.973Z,15
2023-03-05T14:14:48.491Z,15
2023-03-05T14:15:28.976Z,15
2023-03-05T14:16:09.472Z,15
2023-03-05T14:16:50.005Z,15
2023-03-05T14:17:30.453Z,15
2023-03-05T14:24:56.025Z,10
2023-03-05T14:25:36.589Z,10
2023-03-05T14:26:17.037Z,10
2023-03-05T14:26:57.545Z,10
2023-03-05T14:27:38.007Z,10
2023-03-05T14:28:18.513Z,10
2023-03-05T14:28:59.005Z,5
2023-03-05T14:29:39.482Z,5
2023-03-05T14:30:19.946Z,5
2023-03-05T14:31:00.486Z,5
2023-03-05T14:38:25.886Z,5
2023-03-05T14:39:06.327Z,5
2023-03-05T14:39:46.916Z,5
2023-03-05T14:40:27.331Z,5
2023-03-05T14:41:07.782Z,5
2023-03-05T14:41:48.283Z,5
2023-03-05T14:42:28.814Z,5
2023-03-05T14:43:09.288Z,5
2023-03-05T14:43:49.781Z,5
2023-03-05T14:44:30.281Z,5
2023-03-05T14:45:10.808Z,5
2023-03-05T14:51:55.810Z,5
2023-03-05T14:52:36.372Z,5
2023-03-05T14:53:16.965Z,5
2023-03-05T14:53:57.461Z,5
2023-03-05T14:54:37.993Z,5
2023-03-05T14:55:18.550Z,5
2023-03-05T14:55:59.043Z,5
2023-03-05T14:56:39.497Z,5
2023-03-05T14:57:19.956Z,5
2023-03-05T14:58:00.459Z,5
2023-03-05T15:05:25.806Z,5
2023-03-05T15:06:06.264Z,5
2023-03-05T15:06:46.744Z,5
2023-03-05T15:07:27.261Z,5
2023-03-05T15:08:07.751Z,5
2023-03-05T15:08:48.203Z,5
2023-03-05T15:09:28.740Z,5
2023-03-05T15:10:09.243Z,0
2023-03-05T15:10:49.753Z,0
2023-03-05T15:11:30.248Z,0
2023-03-05T15:12:10.711Z,0
2023-03-05T15:19:35.990Z,0
2023-03-05T15:20:16.461Z,0
2023-03-05T15:20:57.007Z,0
2023-03-05T15:21:37.497Z,0
2023-03-05T15:22:18.538Z,0
2023-03-05T15:22:58.515Z,0
2023-03-05T15:24:19.433Z,0
2023-03-05T15:24:59.988Z,0
2023-03-05T15:25:40.466Z,0
2023-03-05T15:33:05.867Z,0
2023-03-05T15:33:46.439Z,0
2023-03-05T15:34:26.944Z,0
2023-03-05T15:35:07.435Z,0
2023-03-05T15:35:48.028Z,0
2023-03-05T15:36:28.446Z,0
2023-03-05T15:37:08.955Z,0
2023-03-05T15:37:49.366Z,0
2023-03-05T15:38:29.906Z,0
2023-03-05T15:39:10.346Z,0
2023-03-05T15:39:50.782Z,0
2023-03-05T15:47:16.173Z,0
2023-03-05T15:47:56.669Z,0
2023-03-05T15:48:37.187Z,0
2023-03-05T15:49:17.698Z,0
2023-03-05T15:49:58.162Z,0
2023-03-05T15:50:38.669Z,0
2023-03-05T15:51:19.180Z,0
2023-03-05T15:51:59.706Z,0
2023-03-05T15:52:40.217Z,0
2023-03-05T15:53:20.660Z,0
2023-03-05T16:00:46.068Z,0
2023-03-05T16:01:26.559Z,0
2023-03-05T16:02:07.013Z,0
2023-03-05T16:02:47.486Z,0
2023-03-05T16:03:28.062Z,0
2023-03-05T16:04:08.465Z,0
2023-03-05T16:04:48.953Z,0
2023-03-05T16:05:29.443Z,0
2023-03-05T16:06:09.931Z,0
2023-03-05T16:06:50.419Z,0
2023-03-05T16:13:36.245Z,0
2023-03-05T16:14:16.773Z,0
2023-03-05T16:14:57.215Z,0
2023-03-05T16:15:37.692Z,0
2023-03-05T16:16:18.204Z,0
2023-03-05T16:16:58.657Z,0
2023-03-05T16:17:39.158Z,0
2023-03-05T16:18:19.636Z,0
2023-03-05T16:19:00.116Z,0
2023-03-05T16:19:40.667Z,0
2023-03-05T16:27:05.994Z,0
2023-03-05T16:27:47.074Z,0
2023-03-05T16:28:27.560Z,0
2023-03-05T16:29:08.034Z,0
2023-03-05T16:30:28.993Z,0
2023-03-05T16:31:09.527Z,0
2023-03-05T16:31:50.086Z,0
2023-03-05T16:32:30.579Z,0
2023-03-05T16:39:55.942Z,0
2023-03-05T16:41:02.830Z,0
2023-03-05T16:41:16.894Z,0
2023-03-05T16:41:57.364Z,0
2023-03-05T16:42:37.847Z,0
2023-03-05T16:43:19.053Z,0
2023-03-05T16:43:59.579Z,0
2023-03-05T16:44:40.568Z,0
2023-03-05T16:52:16.334Z,0
2023-03-05T16:52:46.478Z,0
2023-03-05T16:53:27.003Z,0
2023-03-05T16:54:09.973Z,0
2023-03-05T16:54:47.957Z,0
2023-03-05T16:55:28.488Z,0
2023-03-05T16:56:09.026Z,0
2023-03-05T16:56:49.538Z,0
2023-03-05T16:57:29.970Z,0
2023-03-05T16:58:10.506Z,0
2023-03-05T17:05:35.922Z,0
2023-03-05T17:06:16.375Z,0
2023-03-05T17:06:56.845Z,0
2023-03-05T17:07:37.346Z,0
2023-03-05T17:08:17.877Z,0
2023-03-05T17:08:58.350Z,0
2023-03-05T17:09:38.835Z,0
2023-03-05T17:10:19.316Z,0
2023-03-05T17:10:59.821Z,0
2023-03-05T17:11:40.358Z,0
2023-03-05T17:12:20.823Z,0
2023-03-05T17:19:05.867Z,0
2023-03-05T17:19:46.364Z,0
2023-03-05T17:20:26.860Z,0
2023-03-05T17:21:07.325Z,0
2023-03-05T17:21:47.804Z,0
2023-03-05T17:22:28.320Z,0
2023-03-05T17:23:08.871Z,0
2023-03-05T17:23:49.289Z,0
2023-03-05T17:24:29.825Z,0
2023-03-05T17:25:10.271Z,0
2023-03-05T17:25:50.774Z,0
2023-03-05T17:33:16.208Z,0
2023-03-05T17:33:56.673Z,0
2023-03-05T17:34:37.191Z,0
2023-03-05T17:35:17.777Z,0
2023-03-05T17:35:58.228Z,0
2023-03-05T17:36:38.630Z,0
2023-03-05T17:37:19.145Z,0
2023-03-05T17:37:59.577Z,0
2023-03-05T17:38:40.102Z,0
2023-03-05T17:39:20.601Z,0
2023-03-05T17:46:46.110Z,0
2023-03-05T17:47:26.599Z,0
2023-03-05T17:48:07.118Z,0
2023-03-05T17:48:47.588Z,0
2023-03-05T17:49:28.044Z,0
2023-03-05T17:50:08.539Z,0
2023-03-05T17:50:49.020Z,0
2023-03-05T17:51:29.504Z,0
2023-03-05T17:52:09.982Z,0
2023-03-05T17:52:50.487Z,0
2023-03-05T18:33:52.534Z,0
2023-03-05T18:34:33.013Z,0
2023-03-05T18:35:13.501Z,0
2023-03-05T18:40:37.509Z,0
2023-03-05T18:41:18.034Z,0
2023-03-05T18:41:58.526Z,0
2023-03-05T18:42:39.016Z,0
2023-03-05T18:43:19.511Z,0
2023-03-05T18:44:00.005Z,0
2023-03-05T18:44:40.508Z,0
2023-03-05T18:45:21.873Z,0
